sensor_id;sensor_type;location;lat;lon;timestamp;pressure;altitude;pressure_sealevel;temperature;humidity
63535;BME280;55128;50.230;18.944;2023-02-28T00:03:08;99637.41;;;0.85;48.93
63535;BME280;55128;50.230;18.944;2023-02-28T00:08:09;99636.28;;;0.61;48.99
63535;BME280;55128;50.230;18.944;2023-02-28T00:13:09;99634.59;;;0.66;49.04
63535;BME280;55128;50.230;18.944;2023-02-28T00:18:11;99638.22;;;0.79;48.14
63535;BME280;55128;50.230;18.944;2023-02-28T00:23:12;99639.78;;;0.65;48.80
63535;BME280;55128;50.230;18.944;2023-02-28T00:28:12;99641.56;;;0.66;49.16
63535;BME280;55128;50.230;18.944;2023-02-28T00:33:12;99645.78;;;0.56;50.18
63535;BME280;55128;50.230;18.944;2023-02-28T00:38:14;99644.25;;;0.76;49.58
63535;BME280;55128;50.230;18.944;2023-02-28T00:43:14;99649.22;;;0.52;50.54
63535;BME280;55128;50.230;18.944;2023-02-28T00:48:15;99643.00;;;0.41;51.14
63535;BME280;55128;50.230;18.944;2023-02-28T00:53:16;99654.59;;;0.64;51.14
63535;BME280;55128;50.230;18.944;2023-02-28T00:58:16;99658.22;;;0.75;51.10
63535;BME280;55128;50.230;18.944;2023-02-28T01:03:17;99659.13;;;0.79;51.57
63535;BME280;55128;50.230;18.944;2023-02-28T01:08:18;99654.81;;;0.83;51.65
63535;BME280;55128;50.230;18.944;2023-02-28T01:13:19;99656.44;;;0.71;52.15
63535;BME280;55128;50.230;18.944;2023-02-28T01:18:20;99654.69;;;0.75;52.90
63535;BME280;55128;50.230;18.944;2023-02-28T01:23:22;99648.59;;;0.71;54.14
63535;BME280;55128;50.230;18.944;2023-02-28T01:28:23;99642.53;;;0.75;52.93
63535;BME280;55128;50.230;18.944;2023-02-28T01:33:23;99637.91;;;0.51;53.27
63535;BME280;55128;50.230;18.944;2023-02-28T01:38:24;99635.84;;;0.24;53.67
63535;BME280;55128;50.230;18.944;2023-02-28T01:43:27;99633.06;;;0.09;55.04
63535;BME280;55128;50.230;18.944;2023-02-28T01:48:31;99630.28;;;-0.05;55.15
63535;BME280;55128;50.230;18.944;2023-02-28T01:53:33;99635.41;;;-0.13;55.63
63535;BME280;55128;50.230;18.944;2023-02-28T01:58:36;99632.53;;;-0.31;57.15
63535;BME280;55128;50.230;18.944;2023-02-28T02:03:37;99629.84;;;-0.37;57.67
63535;BME280;55128;50.230;18.944;2023-02-28T02:08:37;99627.22;;;-0.39;58.24
63535;BME280;55128;50.230;18.944;2023-02-28T02:41:11;99623.47;;;-1.10;61.76
63535;BME280;55128;50.230;18.944;2023-02-28T02:46:19;99618.28;;;-1.10;61.85
63535;BME280;55128;50.230;18.944;2023-02-28T02:51:22;99619.13;;;-1.09;61.79
63535;BME280;55128;50.230;18.944;2023-02-28T02:56:27;99624.16;;;-1.22;62.75
63535;BME280;55128;50.230;18.944;2023-02-28T03:01:31;99628.50;;;-1.21;62.86
63535;BME280;55128;50.230;18.944;2023-02-28T03:06:31;99624.19;;;-1.19;62.77
63535;BME280;55128;50.230;18.944;2023-02-28T03:11:32;99631.88;;;-1.26;63.52
63535;BME280;55128;50.230;18.944;2023-02-28T03:27:27;99627.09;;;-1.50;63.86
63535;BME280;55128;50.230;18.944;2023-02-28T03:32:41;99627.78;;;-1.61;64.82
63535;BME280;55128;50.230;18.944;2023-02-28T03:37:48;99641.59;;;-1.65;64.88
63535;BME280;55128;50.230;18.944;2023-02-28T03:42:55;99634.69;;;-1.63;65.17
63535;BME280;55128;50.230;18.944;2023-02-28T03:48:02;99642.19;;;-1.78;65.94
63535;BME280;55128;50.230;18.944;2023-02-28T03:58:24;99643.38;;;-2.03;66.81
63535;BME280;55128;50.230;18.944;2023-02-28T04:03:25;99646.69;;;-2.12;67.50
63535;BME280;55128;50.230;18.944;2023-02-28T04:08:25;99652.44;;;-2.27;67.51
63535;BME280;55128;50.230;18.944;2023-02-28T04:13:25;99651.63;;;-2.24;68.08
63535;BME280;55128;50.230;18.944;2023-02-28T04:18:26;99656.03;;;-2.20;68.26
63535;BME280;55128;50.230;18.944;2023-02-28T04:23:26;99657.66;;;-2.25;67.85
63535;BME280;55128;50.230;18.944;2023-02-28T04:28:26;99668.78;;;-2.31;67.98
63535;BME280;55128;50.230;18.944;2023-02-28T04:33:28;99672.81;;;-2.45;68.84
63535;BME280;55128;50.230;18.944;2023-02-28T04:38:30;99673.00;;;-2.38;69.08
63535;BME280;55128;50.230;18.944;2023-02-28T04:43:32;99676.41;;;-2.40;68.80
63535;BME280;55128;50.230;18.944;2023-02-28T04:48:35;99677.28;;;-2.40;69.81
63535;BME280;55128;50.230;18.944;2023-02-28T04:53:37;99677.28;;;-2.40;69.37
63535;BME280;55128;50.230;18.944;2023-02-28T04:58:39;99681.56;;;-2.42;69.53
63535;BME280;55128;50.230;18.944;2023-02-28T05:03:39;99680.72;;;-2.41;69.80
63535;BME280;55128;50.230;18.944;2023-02-28T05:08:43;99684.09;;;-2.45;69.36
63535;BME280;55128;50.230;18.944;2023-02-28T05:13:44;99669.75;;;-2.65;70.56
63535;BME280;55128;50.230;18.944;2023-02-28T05:18:45;99684.09;;;-2.81;70.98
63535;BME280;55128;50.230;18.944;2023-02-28T05:23:46;99681.69;;;-2.74;70.74
63535;BME280;55128;50.230;18.944;2023-02-28T05:28:46;99685.84;;;-2.80;71.08
63535;BME280;55128;50.230;18.944;2023-02-28T05:33:46;99692.63;;;-2.85;72.13
63535;BME280;55128;50.230;18.944;2023-02-28T05:38:48;99699.97;;;-2.69;71.02
63535;BME280;55128;50.230;18.944;2023-02-28T05:43:48;99698.63;;;-2.53;71.94
63535;BME280;55128;50.230;18.944;2023-02-28T05:48:50;99704.06;;;-2.44;70.24
63535;BME280;55128;50.230;18.944;2023-02-28T05:53:50;99705.66;;;-2.49;70.54
63535;BME280;55128;50.230;18.944;2023-02-28T05:58:51;99707.00;;;-2.28;70.36
63535;BME280;55128;50.230;18.944;2023-02-28T06:03:51;99712.59;;;-1.72;68.62
63535;BME280;55128;50.230;18.944;2023-02-28T06:08:52;99709.06;;;-1.74;69.20
63535;BME280;55128;50.230;18.944;2023-02-28T06:13:59;99722.09;;;-1.30;68.51
63535;BME280;55128;50.230;18.944;2023-02-28T06:19:03;99727.59;;;-0.67;65.68
63535;BME280;55128;50.230;18.944;2023-02-28T06:24:03;99729.28;;;0.48;63.95
63535;BME280;55128;50.230;18.944;2023-02-28T06:29:04;99737.34;;;3.15;58.08
63535;BME280;55128;50.230;18.944;2023-02-28T06:34:05;99737.38;;;4.03;53.15
63535;BME280;55128;50.230;18.944;2023-02-28T06:39:05;99744.25;;;4.64;49.82
63535;BME280;55128;50.230;18.944;2023-02-28T06:44:16;99741.88;;;5.71;48.34
63535;BME280;55128;50.230;18.944;2023-02-28T06:49:17;99742.16;;;6.34;44.28
63535;BME280;55128;50.230;18.944;2023-02-28T06:54:18;99749.41;;;6.15;44.74
63535;BME280;55128;50.230;18.944;2023-02-28T06:59:18;99753.13;;;6.76;42.25
63535;BME280;55128;50.230;18.944;2023-02-28T07:04:18;99751.97;;;8.14;41.00
63535;BME280;55128;50.230;18.944;2023-02-28T07:09:19;99764.25;;;7.01;40.93
63535;BME280;55128;50.230;18.944;2023-02-28T07:14:19;99774.38;;;7.91;38.93
63535;BME280;55128;50.230;18.944;2023-02-28T07:19:20;99778.25;;;9.15;37.19
63535;BME280;55128;50.230;18.944;2023-02-28T07:24:20;99776.53;;;8.21;37.54
63535;BME280;55128;50.230;18.944;2023-02-28T07:29:21;99772.84;;;8.78;37.02
63535;BME280;55128;50.230;18.944;2023-02-28T07:34:22;99768.91;;;8.02;37.46
63535;BME280;55128;50.230;18.944;2023-02-28T07:39:23;99778.16;;;7.14;38.15
63535;BME280;55128;50.230;18.944;2023-02-28T07:44:23;99777.84;;;6.71;39.89
63535;BME280;55128;50.230;18.944;2023-02-28T07:49:24;99773.63;;;6.51;39.52
63535;BME280;55128;50.230;18.944;2023-02-28T07:54:24;99776.06;;;5.78;40.75
63535;BME280;55128;50.230;18.944;2023-02-28T07:59:24;99779.81;;;5.43;41.51
63535;BME280;55128;50.230;18.944;2023-02-28T08:04:25;99779.25;;;4.83;41.58
63535;BME280;55128;50.230;18.944;2023-02-28T08:09:26;99775.75;;;4.78;42.21
63535;BME280;55128;50.230;18.944;2023-02-28T08:14:26;99779.16;;;5.03;42.05
63535;BME280;55128;50.230;18.944;2023-02-28T08:19:27;99772.09;;;7.70;37.67
63535;BME280;55128;50.230;18.944;2023-02-28T08:24:27;99787.56;;;6.66;38.57
63535;BME280;55128;50.230;18.944;2023-02-28T08:29:28;99784.22;;;5.44;39.82
63535;BME280;55128;50.230;18.944;2023-02-28T08:34:30;99775.56;;;5.24;39.84
63535;BME280;55128;50.230;18.944;2023-02-28T08:39:30;99776.94;;;5.74;39.90
63535;BME280;55128;50.230;18.944;2023-02-28T08:44:33;99777.19;;;6.50;39.00
63535;BME280;55128;50.230;18.944;2023-02-28T08:49:34;99783.66;;;6.20;38.78
63535;BME280;55128;50.230;18.944;2023-02-28T08:54:35;99778.59;;;6.79;36.27
63535;BME280;55128;50.230;18.944;2023-02-28T08:59:36;99779.69;;;7.32;36.02
63535;BME280;55128;50.230;18.944;2023-02-28T09:04:36;99787.72;;;7.25;35.12
63535;BME280;55128;50.230;18.944;2023-02-28T09:09:37;99781.25;;;6.77;35.62
63535;BME280;55128;50.230;18.944;2023-02-28T09:14:45;99777.00;;;7.35;34.57
63535;BME280;55128;50.230;18.944;2023-02-28T09:20:12;99794.91;;;6.36;35.43
63535;BME280;55128;50.230;18.944;2023-02-28T09:26:01;99784.84;;;6.73;34.15
63535;BME280;55128;50.230;18.944;2023-02-28T09:31:02;99781.00;;;7.64;33.53
63535;BME280;55128;50.230;18.944;2023-02-28T09:36:29;99778.00;;;7.86;32.24
63535;BME280;55128;50.230;18.944;2023-02-28T09:41:37;99785.66;;;6.77;33.49
63535;BME280;55128;50.230;18.944;2023-02-28T09:46:50;99790.56;;;6.30;35.10
63535;BME280;55128;50.230;18.944;2023-02-28T09:51:55;99789.53;;;5.34;37.42
63535;BME280;55128;50.230;18.944;2023-02-28T10:02:41;99785.94;;;5.47;38.71
63535;BME280;55128;50.230;18.944;2023-02-28T10:08:08;99797.72;;;6.98;36.59
63535;BME280;55128;50.230;18.944;2023-02-28T10:19:13;99787.22;;;9.50;30.82
63535;BME280;55128;50.230;18.944;2023-02-28T10:24:37;99779.81;;;8.82;30.99
63535;BME280;55128;50.230;18.944;2023-02-28T10:29:49;99773.59;;;7.27;33.00
63535;BME280;55128;50.230;18.944;2023-02-28T10:34:57;99785.97;;;6.49;34.87
63535;BME280;55128;50.230;18.944;2023-02-28T10:40:33;99780.84;;;6.37;35.10
63535;BME280;55128;50.230;18.944;2023-02-28T10:51:16;99767.59;;;5.30;37.84
63535;BME280;55128;50.230;18.944;2023-02-28T10:56:22;99757.22;;;5.01;38.76
63535;BME280;55128;50.230;18.944;2023-02-28T11:01:40;99753.72;;;5.03;38.90
63535;BME280;55128;50.230;18.944;2023-02-28T11:06:40;99757.53;;;3.82;41.20
63535;BME280;55128;50.230;18.944;2023-02-28T11:11:43;99747.03;;;3.85;41.95
63535;BME280;55128;50.230;18.944;2023-02-28T11:16:50;99748.78;;;3.79;41.24
63535;BME280;55128;50.230;18.944;2023-02-28T11:22:01;99734.78;;;3.91;41.71
63535;BME280;55128;50.230;18.944;2023-02-28T11:27:03;99721.53;;;4.38;41.73
63535;BME280;55128;50.230;18.944;2023-02-28T11:32:18;99721.66;;;3.75;42.91
63535;BME280;55128;50.230;18.944;2023-02-28T11:37:23;99713.75;;;4.04;42.38
63535;BME280;55128;50.230;18.944;2023-02-28T11:48:25;99705.81;;;4.31;41.71
63535;BME280;55128;50.230;18.944;2023-02-28T11:53:52;99689.09;;;4.41;41.50
63535;BME280;55128;50.230;18.944;2023-02-28T12:04:49;99685.78;;;3.45;43.75
63535;BME280;55128;50.230;18.944;2023-02-28T12:10:22;99678.78;;;3.42;43.30
63535;BME280;55128;50.230;18.944;2023-02-28T12:15:41;99687.41;;;4.34;42.12
63535;BME280;55128;50.230;18.944;2023-02-28T12:21:07;99680.44;;;4.19;40.93
63535;BME280;55128;50.230;18.944;2023-02-28T12:31:47;99686.66;;;3.61;41.81
63535;BME280;55128;50.230;18.944;2023-02-28T12:36:52;99674.38;;;3.84;42.09
63535;BME280;55128;50.230;18.944;2023-02-28T12:47:05;99667.41;;;3.68;42.13
63535;BME280;55128;50.230;18.944;2023-02-28T12:52:10;99664.72;;;3.88;42.39
63535;BME280;55128;50.230;18.944;2023-02-28T13:02:50;99658.50;;;4.18;41.67
63535;BME280;55128;50.230;18.944;2023-02-28T13:13:03;99657.75;;;3.73;43.82
63535;BME280;55128;50.230;18.944;2023-02-28T13:18:04;99657.66;;;4.16;43.33
63535;BME280;55128;50.230;18.944;2023-02-28T13:23:35;99649.69;;;4.33;42.06
63535;BME280;55128;50.230;18.944;2023-02-28T13:39:01;99648.03;;;4.15;42.25
63535;BME280;55128;50.230;18.944;2023-02-28T13:44:20;99642.66;;;4.43;42.01
63535;BME280;55128;50.230;18.944;2023-02-28T14:05:27;99632.28;;;4.14;43.20
63535;BME280;55128;50.230;18.944;2023-02-28T14:10:37;99627.00;;;4.11;43.23
63535;BME280;55128;50.230;18.944;2023-02-28T14:15:56;99618.28;;;4.01;43.34
63535;BME280;55128;50.230;18.944;2023-02-28T14:21:09;99615.72;;;3.82;43.70
63535;BME280;55128;50.230;18.944;2023-02-28T14:31:37;99610.41;;;4.04;44.24
63535;BME280;55128;50.230;18.944;2023-02-28T14:36:43;99611.38;;;3.69;44.24
63535;BME280;55128;50.230;18.944;2023-02-28T14:41:45;99600.88;;;3.61;44.42
63535;BME280;55128;50.230;18.944;2023-02-28T14:46:55;99603.50;;;3.60;44.64
63535;BME280;55128;50.230;18.944;2023-02-28T14:52:15;99607.91;;;3.56;44.69
63535;BME280;55128;50.230;18.944;2023-02-28T14:57:41;99602.59;;;3.73;45.14
63535;BME280;55128;50.230;18.944;2023-02-28T15:02:44;99602.69;;;3.45;45.78
63535;BME280;55128;50.230;18.944;2023-02-28T15:07:45;99600.03;;;3.53;45.23
63535;BME280;55128;50.230;18.944;2023-02-28T15:13:00;99598.28;;;3.52;45.31
63535;BME280;55128;50.230;18.944;2023-02-28T15:18:03;99602.69;;;3.36;45.70
63535;BME280;55128;50.230;18.944;2023-02-28T15:23:22;99604.44;;;3.51;45.95
63535;BME280;55128;50.230;18.944;2023-02-28T15:28:23;99598.31;;;3.47;45.92
63535;BME280;55128;50.230;18.944;2023-02-28T15:33:26;99607.00;;;3.60;45.36
63535;BME280;55128;50.230;18.944;2023-02-28T15:38:32;99604.44;;;3.28;46.07
63535;BME280;55128;50.230;18.944;2023-02-28T15:49:22;99598.31;;;3.10;46.42
63535;BME280;55128;50.230;18.944;2023-02-28T15:54:32;99600.06;;;3.04;47.16
63535;BME280;55128;50.230;18.944;2023-02-28T15:59:35;99602.69;;;2.96;47.03
63535;BME280;55128;50.230;18.944;2023-02-28T16:04:36;99596.56;;;2.97;46.76
63535;BME280;55128;50.230;18.944;2023-02-28T16:09:37;99606.16;;;2.84;47.83
63535;BME280;55128;50.230;18.944;2023-02-28T16:14:38;99596.53;;;2.63;47.67
63535;BME280;55128;50.230;18.944;2023-02-28T16:19:46;99603.50;;;2.58;48.69
63535;BME280;55128;50.230;18.944;2023-02-28T16:30:35;99601.63;;;2.19;49.93
63535;BME280;55128;50.230;18.944;2023-02-28T16:35:35;99615.56;;;2.10;49.86
63535;BME280;55128;50.230;18.944;2023-02-28T16:40:36;99624.22;;;1.90;50.72
63535;BME280;55128;50.230;18.944;2023-02-28T16:45:37;99626.78;;;1.83;50.80
63535;BME280;55128;50.230;18.944;2023-02-28T16:50:37;99627.63;;;1.77;51.63
63535;BME280;55128;50.230;18.944;2023-02-28T16:55:39;99631.97;;;1.78;51.56
63535;BME280;55128;50.230;18.944;2023-02-28T17:00:39;99635.44;;;1.68;51.87
63535;BME280;55128;50.230;18.944;2023-02-28T17:05:39;99635.38;;;1.60;51.93
63535;BME280;55128;50.230;18.944;2023-02-28T17:10:40;99644.91;;;1.53;52.80
63535;BME280;55128;50.230;18.944;2023-02-28T17:15:40;99648.25;;;1.31;53.87
63535;BME280;55128;50.230;18.944;2023-02-28T17:20:41;99651.50;;;1.04;54.71
63535;BME280;55128;50.230;18.944;2023-02-28T17:25:42;99654.03;;;0.94;55.00
63535;BME280;55128;50.230;18.944;2023-02-28T17:30:53;99653.09;;;0.88;55.44
63535;BME280;55128;50.230;18.944;2023-02-28T17:35:53;99653.59;;;0.54;56.09
63535;BME280;55128;50.230;18.944;2023-02-28T17:40:53;99655.44;;;0.63;56.18
63535;BME280;55128;50.230;18.944;2023-02-28T17:45:57;99657.19;;;0.63;56.65
63535;BME280;55128;50.230;18.944;2023-02-28T17:50:58;99659.72;;;0.55;56.30
63535;BME280;55128;50.230;18.944;2023-02-28T17:55:58;99650.91;;;0.45;56.57
63535;BME280;55128;50.230;18.944;2023-02-28T18:00:59;99654.28;;;0.36;57.67
63535;BME280;55128;50.230;18.944;2023-02-28T18:05:59;99650.63;;;0.22;58.16
63535;BME280;55128;50.230;18.944;2023-02-28T18:11:00;99653.16;;;0.16;59.26
63535;BME280;55128;50.230;18.944;2023-02-28T18:16:00;99652.19;;;0.08;59.18
63535;BME280;55128;50.230;18.944;2023-02-28T18:21:03;99653.03;;;0.07;59.61
63535;BME280;55128;50.230;18.944;2023-02-28T18:26:08;99648.56;;;-0.04;60.93
63535;BME280;55128;50.230;18.944;2023-02-28T18:31:10;99649.44;;;-0.03;60.74
63535;BME280;55128;50.230;18.944;2023-02-28T18:36:11;99646.75;;;-0.08;59.68
63535;BME280;55128;50.230;18.944;2023-02-28T18:41:12;99651.03;;;-0.14;61.24
63535;BME280;55128;50.230;18.944;2023-02-28T18:46:15;99649.91;;;-0.30;61.94
63535;BME280;55128;50.230;18.944;2023-02-28T18:51:19;99650.72;;;-0.34;62.13
63535;BME280;55128;50.230;18.944;2023-02-28T18:56:22;99649.00;;;-0.34;61.88
63535;BME280;55128;50.230;18.944;2023-02-28T19:01:25;99645.50;;;-0.36;61.38
63535;BME280;55128;50.230;18.944;2023-02-28T19:06:29;99645.38;;;-0.44;61.91
63535;BME280;55128;50.230;18.944;2023-02-28T19:11:31;99642.59;;;-0.56;63.23
63535;BME280;55128;50.230;18.944;2023-02-28T19:16:31;99640.63;;;-0.71;63.72
63535;BME280;55128;50.230;18.944;2023-02-28T19:21:32;99631.00;;;-0.73;63.13
63535;BME280;55128;50.230;18.944;2023-02-28T19:26:35;99636.22;;;-0.73;62.68
63535;BME280;55128;50.230;18.944;2023-02-28T19:31:36;99637.00;;;-0.79;63.03
63535;BME280;55128;50.230;18.944;2023-02-28T19:36:37;99636.78;;;-0.93;63.49
63535;BME280;55128;50.230;18.944;2023-02-28T19:41:37;99647.16;;;-0.98;63.62
63535;BME280;55128;50.230;18.944;2023-02-28T19:46:39;99646.97;;;-1.08;64.11
63535;BME280;55128;50.230;18.944;2023-02-28T19:51:39;99642.41;;;-1.20;65.16
63535;BME280;55128;50.230;18.944;2023-02-28T19:56:40;99640.88;;;-1.09;64.13
63535;BME280;55128;50.230;18.944;2023-02-28T20:01:40;99637.09;;;-1.26;65.28
63535;BME280;55128;50.230;18.944;2023-02-28T20:06:41;99645.56;;;-1.38;65.19
63535;BME280;55128;50.230;18.944;2023-02-28T20:11:42;99652.22;;;-1.52;65.39
63535;BME280;55128;50.230;18.944;2023-02-28T20:16:44;99645.66;;;-1.32;64.42
63535;BME280;55128;50.230;18.944;2023-02-28T20:21:46;99643.03;;;-1.33;65.73
63535;BME280;55128;50.230;18.944;2023-02-28T20:26:47;99655.09;;;-1.37;65.83
63535;BME280;55128;50.230;18.944;2023-02-28T20:31:47;99643.69;;;-1.45;65.69
63535;BME280;55128;50.230;18.944;2023-02-28T20:36:48;99639.44;;;-1.40;66.24
63535;BME280;55128;50.230;18.944;2023-02-28T20:41:48;99645.31;;;-1.52;66.56
63535;BME280;55128;50.230;18.944;2023-02-28T20:46:49;99635.59;;;-1.61;67.07
63535;BME280;55128;50.230;18.944;2023-02-28T20:51:49;99630.53;;;-1.53;66.40
63535;BME280;55128;50.230;18.944;2023-02-28T20:56:49;99639.94;;;-1.60;67.34
63535;BME280;55128;50.230;18.944;2023-02-28T21:01:50;99638.09;;;-1.65;67.03
63535;BME280;55128;50.230;18.944;2023-02-28T21:06:51;99629.06;;;-1.83;67.79
63535;BME280;55128;50.230;18.944;2023-02-28T21:11:54;99634.22;;;-1.86;68.21
63535;BME280;55128;50.230;18.944;2023-02-28T21:16:54;99633.28;;;-1.88;68.50
63535;BME280;55128;50.230;18.944;2023-02-28T21:21:55;99627.41;;;-1.79;67.43
63535;BME280;55128;50.230;18.944;2023-02-28T21:26:56;99626.44;;;-1.86;68.02
63535;BME280;55128;50.230;18.944;2023-02-28T21:31:58;99635.53;;;-2.06;69.36
63535;BME280;55128;50.230;18.944;2023-02-28T21:36:59;99634.84;;;-1.98;67.95
63535;BME280;55128;50.230;18.944;2023-02-28T21:41:59;99642.59;;;-1.99;67.71
63535;BME280;55128;50.230;18.944;2023-02-28T21:47:02;99637.31;;;-2.04;67.75
63535;BME280;55128;50.230;18.944;2023-02-28T21:52:03;99638.97;;;-2.07;68.29
63535;BME280;55128;50.230;18.944;2023-02-28T21:57:03;99625.03;;;-2.11;68.30
63535;BME280;55128;50.230;18.944;2023-02-28T22:02:04;99630.00;;;-2.22;69.44
63535;BME280;55128;50.230;18.944;2023-02-28T22:07:05;99636.50;;;-2.41;69.59
63535;BME280;55128;50.230;18.944;2023-02-28T22:12:05;99638.25;;;-2.41;69.44
63535;BME280;55128;50.230;18.944;2023-02-28T22:17:07;99643.22;;;-2.50;70.27
63535;BME280;55128;50.230;18.944;2023-02-28T22:22:07;99635.25;;;-2.58;70.27
63535;BME280;55128;50.230;18.944;2023-02-28T22:27:08;99642.88;;;-2.66;70.53
63535;BME280;55128;50.230;18.944;2023-02-28T22:32:08;99645.53;;;-2.64;69.95
63535;BME280;55128;50.230;18.944;2023-02-28T22:37:10;99661.16;;;-2.61;70.32
63535;BME280;55128;50.230;18.944;2023-02-28T22:42:10;99661.97;;;-2.64;70.68
63535;BME280;55128;50.230;18.944;2023-02-28T22:47:11;99658.34;;;-2.72;70.76
63535;BME280;55128;50.230;18.944;2023-02-28T22:52:12;99658.34;;;-2.72;70.22
63535;BME280;55128;50.230;18.944;2023-02-28T22:57:14;99668.78;;;-2.69;70.35
63535;BME280;55128;50.230;18.944;2023-02-28T23:02:15;99660.88;;;-2.74;70.69
63535;BME280;55128;50.230;18.944;2023-02-28T23:07:15;99671.00;;;-2.84;71.05
63535;BME280;55128;50.230;18.944;2023-02-28T23:12:17;99670.16;;;-2.85;70.71
63535;BME280;55128;50.230;18.944;2023-02-28T23:17:17;99683.03;;;-2.88;70.86
63535;BME280;55128;50.230;18.944;2023-02-28T23:22:17;99687.00;;;-3.02;71.46
63535;BME280;55128;50.230;18.944;2023-02-28T23:27:18;99683.09;;;-3.20;72.40
63535;BME280;55128;50.230;18.944;2023-02-28T23:32:18;99672.50;;;-3.27;73.21
63535;BME280;55128;50.230;18.944;2023-02-28T23:37:18;99667.59;;;-3.17;73.42
63535;BME280;55128;50.230;18.944;2023-02-28T23:42:19;99662.50;;;-3.12;72.65
63535;BME280;55128;50.230;18.944;2023-02-28T23:47:21;99667.06;;;-3.03;72.53
63535;BME280;55128;50.230;18.944;2023-02-28T23:52:21;99669.44;;;-3.13;72.43
63535;BME280;55128;50.230;18.944;2023-02-28T23:57:22;99666.00;;;-3.11;72.53
